Rochester, NY (14602)

5:19 PM EDT on July 22, 2017 (GMT -0400)
South Wedge | | Change Station

Elev 525 ft 43.14 °N, 77.61 °W | Updated 3 seconds ago

Overcast
Overcast
79.9 °F
Feels Like 81 °F
N
1.0
Wind Variable Wind from NE

Today
High -- | Low -- °F
--% Chance of Precip.
Yesterday
High -- | Low -- °F
Precip. -- in
Pressure 29.81 in
Visibility 10.0 miles
Clouds Few 4000 ft
Scattered Clouds 11000 ft
Mostly Cloudy 16000 ft
Heat Index 81 °F
Dew Point 63 °F
Humidity 58%
Rainfall 0.00 in
Snow Depth Not available.
5:51 AM 8:42 PM
Waning Crescent, 0% visible
METAR KROC 222054Z 00000KT 10SM FEW040 SCT110 BKN160 26/16 A2981 RMK AO2 SLP095 60000 T02560156 58021
Pressure 29.81 in
Visibility 10.0 miles
Clouds Few 4000 ft
Scattered Clouds 11000 ft
Mostly Cloudy 16000 ft
Heat Index 81 °F
Dew Point 63 °F
Humidity 58%
Rainfall 0.00 in
Snow Depth Not available.
5:51 AM 8:42 PM
Waning Crescent, 0% visible
METAR KROC 222054Z 00000KT 10SM FEW040 SCT110 BKN160 26/16 A2981 RMK AO2 SLP095 60000 T02560156 58021

Get Severe Weather Alerts

Thanks for signing up!

Be on the lookout for a verification email in your inbox.

You'll start receiving the daily forecast at 6 AM.

×

10-Day Weather Forecast

Almanac

Astronomy

Jul. 22, 2017 Rise Set
Actual Time
Civil Twilight
Nautical Twilight
Astronomical Twilight
Moon
Length of Visible Light
Length of Day
Tomorrow will be .
, % of the Moon is Illuminated

Today's Extremes

State Highs State Lows

Community

WunderPhotos

Category 6

Welcome to Category 6. This is the collective home for Weather Underground's featured writeups by Dr. Jeff Masters (right), Bob Henson (left), Chris Burt, and other regular contributors.

Nearby

Air Quality

  Air Quality AQ Index Pollutant
Not available.

Snow Depth

Station Depth Elevation

Earthquake Activity

City Distance Mag. Time & Date
Minimum magnitude displayed is 2.5.

Coastal Water Temperatures

Place Temperature

Stations

Nearby Weather Stations

Station Location Temp. Windchill Dew Point Humidity Wind Precip. Elev Updated Type
                   

Watches & Warnings

There are currently no watches in effect.